Douglas, Alabama
Current Conditions -  °F | °C
As of 10:15 AM on Sunday 23 Nov 2014 (Local Time) from K8A0 Reporting Station
Overcast Overcast  
Wind Chill: 52°   Ceiling: 500
Heat Index: 52°   Visibility: 7mi
Dew Point: 52°   Wind: 10mph
Humidity: 100%   Direction: 110°ESE
Pressure: 29.83"   Gusts: 21mph
Location:  34.17°N, 86.32°W
Report Text: K8A0 231615Z AUTO 11009G18KT 079V139 7SM OVC005 11/11 A2983 RMK AO2 LTG DSNT SE
Loading
Personal Weather Stations






























Interactive Weather Map New forecast layout! Learn more

10-Day Weather Forecast

Advertisements
Track Severe Weather on mobile